createdAt,value
2023-05-21T00:08:03.082Z,74.04
2023-05-21T00:18:03.262Z,74.03
2023-05-21T00:28:03.074Z,74.10
2023-05-21T00:38:03.113Z,74.11
2023-05-21T00:48:03.877Z,74.08
2023-05-21T00:58:04.442Z,74.15
2023-05-21T01:08:04.148Z,74.14
2023-05-21T01:18:04.230Z,74.18
2023-05-21T01:28:04.156Z,74.19
2023-05-21T01:38:04.338Z,74.30
2023-05-21T01:48:05.312Z,74.29
2023-05-21T01:58:05.202Z,74.44
2023-05-21T02:08:07.270Z,74.68
2023-05-21T02:18:08.445Z,74.79
2023-05-21T02:28:08.244Z,74.92
2023-05-21T02:38:08.740Z,74.94
2023-05-21T02:48:13.672Z,75.10
2023-05-21T02:58:15.149Z,75.12
2023-05-21T03:08:15.327Z,75.24
2023-05-21T03:18:15.915Z,75.32
2023-05-21T03:28:21.500Z,75.38
2023-05-21T03:38:21.857Z,75.40
2023-05-21T03:48:22.533Z,75.42
2023-05-21T03:58:22.523Z,75.41
2023-05-21T04:08:22.385Z,75.40
2023-05-21T04:18:25.760Z,75.32
2023-05-21T04:28:27.505Z,75.18
2023-05-21T04:38:27.522Z,74.95
2023-05-21T04:48:28.542Z,74.74
2023-05-21T04:58:28.634Z,74.46
2023-05-21T05:08:28.546Z,74.08
2023-05-21T05:18:28.690Z,73.56
2023-05-21T05:28:28.817Z,72.94
2023-05-21T05:38:28.741Z,72.31
2023-05-21T05:48:30.135Z,71.41
2023-05-21T05:58:32.549Z,70.61
2023-05-21T06:08:35.476Z,69.96
2023-05-21T06:18:36.649Z,68.35
2023-05-21T06:28:37.072Z,65.91
2023-05-21T06:38:38.033Z,64.25
2023-05-21T06:48:39.412Z,61.74
2023-05-21T06:58:39.893Z,59.91
2023-05-21T07:08:39.745Z,56.50
2023-05-21T07:18:39.849Z,54.24
2023-05-21T07:28:39.834Z,50.40
2023-05-21T07:38:40.922Z,42.49
2023-05-21T07:48:41.603Z,39.07
2023-05-21T07:58:43.793Z,38.61
2023-05-21T08:08:44.123Z,35.29
2023-05-21T08:18:44.157Z,34.09
2023-05-21T08:28:46.083Z,33.31
2023-05-21T08:38:47.686Z,27.39
2023-05-21T08:48:48.044Z,25.98
2023-05-21T08:58:49.839Z,23.16
2023-05-21T09:08:54.769Z,24.03
2023-05-21T09:19:00.630Z,22.79
2023-05-21T09:29:02.094Z,21.45
2023-05-21T09:39:04.529Z,25.31
2023-05-21T09:49:06.169Z,22.74
2023-05-21T09:59:06.031Z,22.68
2023-05-21T10:09:06.132Z,23.28
2023-05-21T10:19:07.881Z,24.96
2023-05-21T10:29:07.958Z,25.76
2023-05-21T10:39:09.120Z,29.00
2023-05-21T10:49:09.008Z,31.72
2023-05-21T10:59:09.007Z,33.39
2023-05-21T11:09:09.062Z,34.28
2023-05-21T11:19:09.109Z,35.36
2023-05-21T11:29:09.166Z,36.15
2023-05-21T11:39:09.601Z,37.12
2023-05-21T11:49:10.116Z,38.92
2023-05-21T11:59:10.439Z,40.26
2023-05-21T12:09:10.150Z,42.25
2023-05-21T12:19:10.382Z,43.64
2023-05-21T12:29:10.652Z,44.53
2023-05-21T12:39:11.382Z,43.88
2023-05-21T12:49:11.180Z,44.74
2023-05-21T12:59:11.203Z,45.27
2023-05-21T13:09:11.245Z,46.82
2023-05-21T13:19:11.347Z,48.49
2023-05-21T13:29:13.964Z,49.15
2023-05-21T13:39:14.321Z,49.99
2023-05-21T13:49:14.293Z,50.90
2023-05-21T13:59:14.273Z,51.46
2023-05-21T14:09:14.346Z,52.38
2023-05-21T14:19:14.377Z,52.60
2023-05-21T14:29:14.422Z,52.91
2023-05-21T14:39:14.434Z,53.08
2023-05-21T14:49:14.365Z,52.26
2023-05-21T14:59:14.467Z,52.28
2023-05-21T15:09:14.517Z,52.33
2023-05-21T15:19:14.488Z,52.99
2023-05-21T15:29:14.454Z,52.63
2023-05-21T15:39:14.477Z,53.06
2023-05-21T15:49:14.557Z,53.19
2023-05-21T15:59:14.501Z,53.54
2023-05-21T16:09:14.547Z,53.72
2023-05-21T16:19:14.621Z,53.94
2023-05-21T16:29:14.568Z,54.03
2023-05-21T16:39:14.568Z,53.96
2023-05-21T16:49:14.577Z,54.00
2023-05-21T16:59:14.562Z,53.81
2023-05-21T17:09:15.305Z,53.39
2023-05-21T17:19:16.766Z,54.20
2023-05-21T17:29:16.637Z,54.55
2023-05-21T17:39:16.649Z,55.44
2023-05-21T17:49:16.614Z,56.07
2023-05-21T17:59:16.810Z,56.44
2023-05-21T18:09:16.779Z,57.69
2023-05-21T18:19:16.714Z,59.00
2023-05-21T18:29:16.826Z,60.12
2023-05-21T18:39:16.770Z,61.14
2023-05-21T18:49:16.756Z,61.89
2023-05-21T18:59:16.852Z,62.68
2023-05-21T19:09:16.820Z,63.23
2023-05-21T19:19:16.816Z,63.82
2023-05-21T19:29:16.771Z,64.95
2023-05-21T19:39:16.788Z,65.60
2023-05-21T19:49:17.227Z,66.15
2023-05-21T19:59:17.827Z,66.67
2023-05-21T20:09:17.856Z,67.07
2023-05-21T20:19:18.099Z,67.41
2023-05-21T20:29:17.823Z,67.89
2023-05-21T20:39:19.789Z,68.29
2023-05-21T20:49:19.883Z,68.76
2023-05-21T20:59:20.012Z,69.24
2023-05-21T21:09:19.932Z,69.94
2023-05-21T21:19:19.998Z,70.07
2023-05-21T21:29:19.993Z,70.24
2023-05-21T21:39:20.265Z,70.63
2023-05-21T21:49:20.078Z,71.00
2023-05-21T21:59:20.367Z,71.49
2023-05-21T22:09:21.929Z,71.86
2023-05-21T22:19:23.226Z,72.18
2023-05-21T22:29:23.031Z,72.37
2023-05-21T22:39:23.041Z,72.73
2023-05-21T22:49:23.058Z,73.12
2023-05-21T22:59:23.068Z,73.33
2023-05-21T23:09:23.057Z,73.57
2023-05-21T23:19:23.097Z,73.58
2023-05-21T23:29:23.076Z,73.71
2023-05-21T23:39:23.191Z,73.90
2023-05-21T23:49:23.080Z,73.81
2023-05-21T23:59:23.122Z,73.93
